sensor_id;sensor_type;location;lat;lon;timestamp;pressure;altitude;pressure_sealevel;temperature;humidity
25855;BME280;13680;49.936;11.344;2023-02-14T00:01:42;98671.00;;;-0.39;77.22
25855;BME280;13680;49.936;11.344;2023-02-14T00:04:08;98667.00;;;-0.35;77.25
25855;BME280;13680;49.936;11.344;2023-02-14T00:06:33;98664.63;;;-0.30;77.54
25855;BME280;13680;49.936;11.344;2023-02-14T00:09:23;98660.78;;;-0.27;77.99
25855;BME280;13680;49.936;11.344;2023-02-14T00:11:48;98655.97;;;-0.24;78.36
25855;BME280;13680;49.936;11.344;2023-02-14T00:14:14;98658.34;;;-0.29;78.81
25855;BME280;13680;49.936;11.344;2023-02-14T00:16:59;98651.22;;;-0.28;78.57
25855;BME280;13680;49.936;11.344;2023-02-14T00:19:24;98652.22;;;-0.29;78.26
25855;BME280;13680;49.936;11.344;2023-02-14T00:21:49;98644.84;;;-0.34;78.43
25855;BME280;13680;49.936;11.344;2023-02-14T00:24:17;98648.31;;;-0.34;78.65
25855;BME280;13680;49.936;11.344;2023-02-14T00:26:43;98649.47;;;-0.36;79.05
25855;BME280;13680;49.936;11.344;2023-02-14T00:29:14;98648.94;;;-0.31;79.09
25855;BME280;13680;49.936;11.344;2023-02-14T00:31:41;98656.97;;;-0.25;79.00
25855;BME280;13680;49.936;11.344;2023-02-14T00:34:06;98656.63;;;-0.22;79.04
25855;BME280;13680;49.936;11.344;2023-02-14T00:36:33;98661.72;;;-0.20;79.37
25855;BME280;13680;49.936;11.344;2023-02-14T00:39:01;98657.44;;;-0.21;79.49
25855;BME280;13680;49.936;11.344;2023-02-14T00:41:26;98654.66;;;-0.13;80.50
25855;BME280;13680;49.936;11.344;2023-02-14T00:43:52;98654.78;;;-0.06;80.37
25855;BME280;13680;49.936;11.344;2023-02-14T00:46:20;98664.34;;;-0.05;79.92
25855;BME280;13680;49.936;11.344;2023-02-14T00:48:46;98667.09;;;0.02;80.64
25855;BME280;13680;49.936;11.344;2023-02-14T00:51:12;98657.13;;;0.04;80.66
25855;BME280;13680;49.936;11.344;2023-02-14T00:53:37;98660.69;;;0.11;80.59
25855;BME280;13680;49.936;11.344;2023-02-14T00:56:03;98665.97;;;0.11;80.65
25855;BME280;13680;49.936;11.344;2023-02-14T00:58:29;98667.44;;;0.13;81.08
25855;BME280;13680;49.936;11.344;2023-02-14T01:00:55;98671.06;;;0.12;81.73
25855;BME280;13680;49.936;11.344;2023-02-14T01:03:21;98672.59;;;0.22;81.73
25855;BME280;13680;49.936;11.344;2023-02-14T01:05:47;98671.81;;;0.21;81.75
25855;BME280;13680;49.936;11.344;2023-02-14T01:08:13;98666.56;;;0.28;81.83
25855;BME280;13680;49.936;11.344;2023-02-14T01:10:38;98664.66;;;0.37;81.73
25855;BME280;13680;49.936;11.344;2023-02-14T01:13:04;98660.63;;;0.41;81.12
25855;BME280;13680;49.936;11.344;2023-02-14T01:15:30;98665.00;;;0.48;81.76
25855;BME280;13680;49.936;11.344;2023-02-14T01:17:56;98657.69;;;0.51;81.40
25855;BME280;13680;49.936;11.344;2023-02-14T01:20:22;98660.41;;;0.57;81.09
25855;BME280;13680;49.936;11.344;2023-02-14T01:22:48;98660.03;;;0.60;80.79
25855;BME280;13680;49.936;11.344;2023-02-14T01:25:13;98660.22;;;0.59;80.97
25855;BME280;13680;49.936;11.344;2023-02-14T01:27:39;98655.53;;;0.61;81.11
25855;BME280;13680;49.936;11.344;2023-02-14T01:30:05;98657.84;;;0.64;81.44
25855;BME280;13680;49.936;11.344;2023-02-14T01:32:31;98658.00;;;0.62;82.03
25855;BME280;13680;49.936;11.344;2023-02-14T01:34:58;98664.13;;;0.63;82.02
25855;BME280;13680;49.936;11.344;2023-02-14T01:37:23;98665.53;;;0.59;82.52
25855;BME280;13680;49.936;11.344;2023-02-14T01:39:48;98657.66;;;0.65;83.12
25855;BME280;13680;49.936;11.344;2023-02-14T01:42:14;98649.41;;;0.75;82.69
25855;BME280;13680;49.936;11.344;2023-02-14T01:47:07;98657.06;;;0.70;83.02
25855;BME280;13680;49.936;11.344;2023-02-14T01:49:48;98650.00;;;0.77;83.32
25855;BME280;13680;49.936;11.344;2023-02-14T01:52:21;98655.19;;;0.86;83.14
25855;BME280;13680;49.936;11.344;2023-02-14T01:54:51;98648.06;;;0.86;83.59
25855;BME280;13680;49.936;11.344;2023-02-14T01:57:20;98639.91;;;0.88;83.38
25855;BME280;13680;49.936;11.344;2023-02-14T01:59:52;98632.81;;;0.88;83.22
25855;BME280;13680;49.936;11.344;2023-02-14T02:02:19;98635.72;;;0.93;82.96
25855;BME280;13680;49.936;11.344;2023-02-14T02:04:50;98636.66;;;0.86;83.30
25855;BME280;13680;49.936;11.344;2023-02-14T02:07:20;98638.53;;;0.92;83.82
25855;BME280;13680;49.936;11.344;2023-02-14T02:09:56;98630.47;;;1.00;83.14
25855;BME280;13680;49.936;11.344;2023-02-14T02:12:22;98629.72;;;0.85;83.91
25855;BME280;13680;49.936;11.344;2023-02-14T02:14:50;98631.91;;;1.03;83.34
25855;BME280;13680;49.936;11.344;2023-02-14T02:28:39;98620.75;;;1.07;83.98
25855;BME280;13680;49.936;11.344;2023-02-14T02:37:34;98614.91;;;1.19;83.83
25855;BME280;13680;49.936;11.344;2023-02-14T02:40:18;98616.59;;;1.26;83.28
25855;BME280;13680;49.936;11.344;2023-02-14T02:48:09;98620.19;;;1.19;83.54
25855;BME280;13680;49.936;11.344;2023-02-14T02:50:48;98623.88;;;1.18;83.79
25855;BME280;13680;49.936;11.344;2023-02-14T02:53:37;98619.81;;;1.22;83.97
25855;BME280;13680;49.936;11.344;2023-02-14T02:56:09;98607.38;;;1.22;83.46
25855;BME280;13680;49.936;11.344;2023-02-14T02:59:02;98611.06;;;1.21;83.62
25855;BME280;13680;49.936;11.344;2023-02-14T03:01:36;98622.72;;;1.27;83.46
25855;BME280;13680;49.936;11.344;2023-02-14T03:04:09;98623.91;;;1.24;83.54
25855;BME280;13680;49.936;11.344;2023-02-14T03:06:54;98621.84;;;1.20;83.85
25855;BME280;13680;49.936;11.344;2023-02-14T03:12:08;98620.69;;;1.29;83.78
25855;BME280;13680;49.936;11.344;2023-02-14T03:14:50;98620.69;;;1.29;83.48
25855;BME280;13680;49.936;11.344;2023-02-14T03:20:13;98634.97;;;1.28;84.27
25855;BME280;13680;49.936;11.344;2023-02-14T03:22:47;98629.66;;;1.28;83.48
25855;BME280;13680;49.936;11.344;2023-02-14T03:28:25;98639.34;;;1.42;83.70
25855;BME280;13680;49.936;11.344;2023-02-14T03:36:40;98644.34;;;1.30;83.90
25855;BME280;13680;49.936;11.344;2023-02-14T03:39:13;98643.91;;;1.27;83.40
25855;BME280;13680;49.936;11.344;2023-02-14T03:41:45;98635.69;;;1.15;83.86
25855;BME280;13680;49.936;11.344;2023-02-14T03:44:17;98643.69;;;1.22;83.49
25855;BME280;13680;49.936;11.344;2023-02-14T03:46:52;98636.53;;;1.22;84.42
25855;BME280;13680;49.936;11.344;2023-02-14T03:49:22;98634.75;;;1.29;83.55
25855;BME280;13680;49.936;11.344;2023-02-14T03:51:51;98637.69;;;1.13;84.29
25855;BME280;13680;49.936;11.344;2023-02-14T03:54:19;98636.88;;;1.12;83.88
25855;BME280;13680;49.936;11.344;2023-02-14T03:57:00;98648.09;;;1.14;84.67
25855;BME280;13680;49.936;11.344;2023-02-14T03:59:29;98643.47;;;1.23;83.90
25855;BME280;13680;49.936;11.344;2023-02-14T04:02:15;98654.09;;;1.23;83.41
25855;BME280;13680;49.936;11.344;2023-02-14T04:04:46;98635.38;;;1.03;84.40
25855;BME280;13680;49.936;11.344;2023-02-14T04:07:15;98646.59;;;1.05;84.70
25855;BME280;13680;49.936;11.344;2023-02-14T04:09:41;98639.34;;;1.14;84.15
25855;BME280;13680;49.936;11.344;2023-02-14T04:12:08;98641.16;;;1.13;84.59
25855;BME280;13680;49.936;11.344;2023-02-14T04:14:33;98636.53;;;1.22;84.22
25855;BME280;13680;49.936;11.344;2023-02-14T04:16:59;98636.53;;;1.22;84.14
25855;BME280;13680;49.936;11.344;2023-02-14T04:19:43;98634.66;;;1.16;84.33
25855;BME280;13680;49.936;11.344;2023-02-14T04:22:08;98634.72;;;1.23;84.14
25855;BME280;13680;49.936;11.344;2023-02-14T04:24:34;98634.72;;;1.23;84.08
25855;BME280;13680;49.936;11.344;2023-02-14T04:26:59;98630.28;;;1.30;83.35
25855;BME280;13680;49.936;11.344;2023-02-14T04:29:44;98628.75;;;1.14;84.07
25855;BME280;13680;49.936;11.344;2023-02-14T04:32:16;98636.88;;;1.12;84.31
25855;BME280;13680;49.936;11.344;2023-02-14T04:34:42;98643.44;;;1.17;83.52
25855;BME280;13680;49.936;11.344;2023-02-14T04:37:08;98642.94;;;1.06;84.17
25855;BME280;13680;49.936;11.344;2023-02-14T04:39:34;98636.03;;;1.12;83.79
25855;BME280;13680;49.936;11.344;2023-02-14T04:42:00;98641.78;;;1.16;84.29
25855;BME280;13680;49.936;11.344;2023-02-14T04:44:25;98628.53;;;1.16;83.67
25855;BME280;13680;49.936;11.344;2023-02-14T04:46:50;98626.91;;;0.93;84.05
25855;BME280;13680;49.936;11.344;2023-02-14T04:49:16;98629.66;;;1.00;84.41
25855;BME280;13680;49.936;11.344;2023-02-14T04:51:42;98626.66;;;1.09;84.22
25855;BME280;13680;49.936;11.344;2023-02-14T04:54:07;98625.91;;;1.16;83.74
25855;BME280;13680;49.936;11.344;2023-02-14T04:56:32;98630.38;;;1.15;83.49
25855;BME280;13680;49.936;11.344;2023-02-14T04:58:58;98631.16;;;1.09;83.85
25855;BME280;13680;49.936;11.344;2023-02-14T05:01:23;98625.66;;;1.10;83.02
25855;BME280;13680;49.936;11.344;2023-02-14T05:03:48;98627.69;;;0.87;83.80
25855;BME280;13680;49.936;11.344;2023-02-14T05:06:14;98626.47;;;0.89;83.80
25855;BME280;13680;49.936;11.344;2023-02-14T05:08:39;98621.63;;;0.93;83.84
25855;BME280;13680;49.936;11.344;2023-02-14T05:11:05;98628.63;;;1.01;83.82
25855;BME280;13680;49.936;11.344;2023-02-14T05:13:30;98624.16;;;1.01;83.38
25855;BME280;13680;49.936;11.344;2023-02-14T05:15:59;98621.88;;;0.98;83.14
25855;BME280;13680;49.936;11.344;2023-02-14T05:18:24;98610.31;;;1.06;83.34
25855;BME280;13680;49.936;11.344;2023-02-14T05:20:51;98621.31;;;1.03;82.79
25855;BME280;13680;49.936;11.344;2023-02-14T05:23:17;98625.22;;;1.07;83.06
25855;BME280;13680;49.936;11.344;2023-02-14T05:25:42;98617.97;;;0.94;83.65
25855;BME280;13680;49.936;11.344;2023-02-14T05:28:09;98617.22;;;1.00;83.73
25855;BME280;13680;49.936;11.344;2023-02-14T05:30:36;98616.91;;;0.88;84.58
25855;BME280;13680;49.936;11.344;2023-02-14T05:33:01;98619.13;;;0.85;84.87
25855;BME280;13680;49.936;11.344;2023-02-14T05:35:27;98620.38;;;0.89;84.69
25855;BME280;13680;49.936;11.344;2023-02-14T05:37:52;98614.97;;;0.97;83.91
25855;BME280;13680;49.936;11.344;2023-02-14T05:40:18;98611.88;;;0.93;84.23
25855;BME280;13680;49.936;11.344;2023-02-14T05:42:43;98606.63;;;1.00;83.41
25855;BME280;13680;49.936;11.344;2023-02-14T05:45:10;98610.28;;;0.99;83.40
25855;BME280;13680;49.936;11.344;2023-02-14T05:47:36;98611.88;;;0.93;84.20
25855;BME280;13680;49.936;11.344;2023-02-14T05:50:01;98608.72;;;0.83;84.51
25855;BME280;13680;49.936;11.344;2023-02-14T05:52:26;98607.38;;;0.72;84.94
25855;BME280;13680;49.936;11.344;2023-02-14T05:54:52;98602.47;;;0.69;84.62
25855;BME280;13680;49.936;11.344;2023-02-14T05:57:18;98609.69;;;0.75;84.35
25855;BME280;13680;49.936;11.344;2023-02-14T05:59:43;98618.22;;;0.77;83.86
25855;BME280;13680;49.936;11.344;2023-02-14T06:02:08;98620.78;;;0.86;84.02
25855;BME280;13680;49.936;11.344;2023-02-14T06:04:34;98617.09;;;0.65;84.27
25855;BME280;13680;49.936;11.344;2023-02-14T06:06:59;98616.09;;;0.66;84.04
25855;BME280;13680;49.936;11.344;2023-02-14T06:09:25;98631.34;;;0.42;85.39
25855;BME280;13680;49.936;11.344;2023-02-14T06:11:50;98628.13;;;0.47;85.55
25855;BME280;13680;49.936;11.344;2023-02-14T06:14:15;98614.44;;;0.65;85.56
25855;BME280;13680;49.936;11.344;2023-02-14T06:16:41;98613.38;;;0.59;85.64
25855;BME280;13680;49.936;11.344;2023-02-14T06:19:06;98612.88;;;0.71;84.82
25855;BME280;13680;49.936;11.344;2023-02-14T06:21:32;98617.78;;;0.74;84.93
25855;BME280;13680;49.936;11.344;2023-02-14T06:23:57;98613.81;;;0.85;84.85
25855;BME280;13680;49.936;11.344;2023-02-14T06:26:23;98615.47;;;0.86;83.78
25855;BME280;13680;49.936;11.344;2023-02-14T06:28:55;98610.94;;;0.79;83.99
25855;BME280;13680;49.936;11.344;2023-02-14T06:31:21;98605.56;;;0.73;84.68
25855;BME280;13680;49.936;11.344;2023-02-14T06:33:46;98600.09;;;0.74;83.71
25855;BME280;13680;49.936;11.344;2023-02-14T06:36:12;98615.72;;;0.69;84.23
25855;BME280;13680;49.936;11.344;2023-02-14T06:38:37;98614.53;;;0.72;83.77
25855;BME280;13680;49.936;11.344;2023-02-14T06:41:04;98614.09;;;0.68;84.52
25855;BME280;13680;49.936;11.344;2023-02-14T06:43:30;98613.78;;;0.78;84.07
25855;BME280;13680;49.936;11.344;2023-02-14T06:45:56;98614.38;;;0.80;84.59
25855;BME280;13680;49.936;11.344;2023-02-14T06:48:21;98620.94;;;0.84;83.64
25855;BME280;13680;49.936;11.344;2023-02-14T06:50:46;98609.13;;;0.87;83.50
25855;BME280;13680;49.936;11.344;2023-02-14T06:53:11;98610.28;;;0.56;84.28
25855;BME280;13680;49.936;11.344;2023-02-14T06:55:37;98621.75;;;0.41;85.25
25855;BME280;13680;49.936;11.344;2023-02-14T06:58:02;98616.84;;;0.60;84.74
25855;BME280;13680;49.936;11.344;2023-02-14T07:00:28;98611.13;;;0.56;85.11
25855;BME280;13680;49.936;11.344;2023-02-14T07:02:53;98610.44;;;0.69;84.84
25855;BME280;13680;49.936;11.344;2023-02-14T07:05:18;98610.53;;;0.82;84.49
25855;BME280;13680;49.936;11.344;2023-02-14T07:07:44;98618.63;;;0.96;83.66
25855;BME280;13680;49.936;11.344;2023-02-14T07:10:10;98610.53;;;0.82;82.86
25855;BME280;13680;49.936;11.344;2023-02-14T07:12:35;98614.03;;;0.83;82.48
25855;BME280;13680;49.936;11.344;2023-02-14T07:15:04;98618.72;;;0.88;82.96
25855;BME280;13680;49.936;11.344;2023-02-14T07:17:30;98609.78;;;0.67;83.82
25855;BME280;13680;49.936;11.344;2023-02-14T07:19:55;98612.69;;;0.72;84.04
25855;BME280;13680;49.936;11.344;2023-02-14T07:22:20;98607.69;;;0.84;83.90
25855;BME280;13680;49.936;11.344;2023-02-14T07:24:45;98610.28;;;0.99;83.75
25855;BME280;13680;49.936;11.344;2023-02-14T07:27:11;98604.78;;;1.01;82.95
25855;BME280;13680;49.936;11.344;2023-02-14T07:29:36;98613.22;;;1.11;83.60
25855;BME280;13680;49.936;11.344;2023-02-14T07:32:01;98608.88;;;1.03;83.08
25855;BME280;13680;49.936;11.344;2023-02-14T07:34:27;98605.00;;;1.06;83.55
25855;BME280;13680;49.936;11.344;2023-02-14T07:36:52;98602.69;;;1.18;83.06
25855;BME280;13680;49.936;11.344;2023-02-14T07:39:18;98605.13;;;1.19;82.56
25855;BME280;13680;49.936;11.344;2023-02-14T07:41:43;98600.16;;;1.09;81.52
25855;BME280;13680;49.936;11.344;2023-02-14T07:44:08;98599.47;;;1.01;82.35
25855;BME280;13680;49.936;11.344;2023-02-14T07:46:33;98599.31;;;1.02;82.13
25855;BME280;13680;49.936;11.344;2023-02-14T07:48:59;98598.63;;;1.22;81.95
25855;BME280;13680;49.936;11.344;2023-02-14T07:51:24;98595.78;;;1.23;82.68
25855;BME280;13680;49.936;11.344;2023-02-14T07:53:49;98593.03;;;1.38;82.10
25855;BME280;13680;49.936;11.344;2023-02-14T07:56:15;98601.06;;;1.23;82.10
25855;BME280;13680;49.936;11.344;2023-02-14T07:58:40;98602.38;;;1.34;82.77
25855;BME280;13680;49.936;11.344;2023-02-14T08:01:05;98595.88;;;1.37;82.74
25855;BME280;13680;49.936;11.344;2023-02-14T08:03:31;98589.97;;;1.41;82.30
25855;BME280;13680;49.936;11.344;2023-02-14T08:05:56;98588.97;;;1.42;82.30
25855;BME280;13680;49.936;11.344;2023-02-14T08:08:24;98593.56;;;1.62;81.65
25855;BME280;13680;49.936;11.344;2023-02-14T08:10:49;98587.63;;;1.25;82.35
25855;BME280;13680;49.936;11.344;2023-02-14T08:13:14;98586.19;;;1.51;81.83
25855;BME280;13680;49.936;11.344;2023-02-14T08:15:40;98582.16;;;1.61;82.04
25855;BME280;13680;49.936;11.344;2023-02-14T08:18:23;98585.47;;;1.70;81.28
25855;BME280;13680;49.936;11.344;2023-02-14T08:20:49;98591.22;;;1.80;81.36
25855;BME280;13680;49.936;11.344;2023-02-14T08:23:16;98592.06;;;1.88;80.84
25855;BME280;13680;49.936;11.344;2023-02-14T08:25:42;98590.66;;;1.92;80.27
25855;BME280;13680;49.936;11.344;2023-02-14T08:28:07;98586.53;;;1.83;80.00
25855;BME280;13680;49.936;11.344;2023-02-14T08:30:35;98582.28;;;1.95;79.72
25855;BME280;13680;49.936;11.344;2023-02-14T08:33:01;98587.63;;;2.02;80.00
25855;BME280;13680;49.936;11.344;2023-02-14T08:35:27;98583.66;;;1.77;80.15
25855;BME280;13680;49.936;11.344;2023-02-14T08:37:52;98580.84;;;1.92;79.69
25855;BME280;13680;49.936;11.344;2023-02-14T08:40:17;98579.03;;;1.93;79.68
25855;BME280;13680;49.936;11.344;2023-02-14T08:42:44;98588.44;;;1.95;79.65
25855;BME280;13680;49.936;11.344;2023-02-14T08:45:09;98580.59;;;1.80;80.38
25855;BME280;13680;49.936;11.344;2023-02-14T08:47:35;98583.56;;;2.06;80.27
25855;BME280;13680;49.936;11.344;2023-02-14T08:50:08;98579.91;;;2.13;80.09
25855;BME280;13680;49.936;11.344;2023-02-14T08:52:34;98581.16;;;2.24;79.48
25855;BME280;13680;49.936;11.344;2023-02-14T08:54:59;98584.66;;;2.25;78.62
25855;BME280;13680;49.936;11.344;2023-02-14T08:57:25;98582.94;;;2.10;78.78
25855;BME280;13680;49.936;11.344;2023-02-14T08:59:52;98581.97;;;2.18;79.30
25855;BME280;13680;49.936;11.344;2023-02-14T09:02:17;98584.84;;;2.23;80.08
25855;BME280;13680;49.936;11.344;2023-02-14T09:04:43;98589.13;;;2.24;79.50
25855;BME280;13680;49.936;11.344;2023-02-14T09:07:10;98588.53;;;2.29;79.30
25855;BME280;13680;49.936;11.344;2023-02-14T09:09:36;98583.22;;;2.36;78.58
25855;BME280;13680;49.936;11.344;2023-02-14T09:12:06;98589.75;;;2.26;79.04
25855;BME280;13680;49.936;11.344;2023-02-14T09:14:36;98591.84;;;2.44;78.66
25855;BME280;13680;49.936;11.344;2023-02-14T09:17:03;98580.03;;;2.60;78.10
25855;BME280;13680;49.936;11.344;2023-02-14T09:19:31;98579.41;;;2.45;78.19
25855;BME280;13680;49.936;11.344;2023-02-14T09:21:57;98583.91;;;2.58;77.65
25855;BME280;13680;49.936;11.344;2023-02-14T09:24:22;98577.97;;;2.56;78.26
25855;BME280;13680;49.936;11.344;2023-02-14T09:26:48;98570.63;;;2.58;78.58
25855;BME280;13680;49.936;11.344;2023-02-14T09:29:13;98579.81;;;2.55;78.25
25855;BME280;13680;49.936;11.344;2023-02-14T09:31:40;98569.59;;;2.72;78.15
25855;BME280;13680;49.936;11.344;2023-02-14T09:34:05;98573.91;;;2.73;77.91
25855;BME280;13680;49.936;11.344;2023-02-14T09:36:49;98567.59;;;2.74;78.04
25855;BME280;13680;49.936;11.344;2023-02-14T09:39:35;98564.94;;;2.74;77.82
25855;BME280;13680;49.936;11.344;2023-02-14T09:44:42;98569.63;;;2.92;78.41
25855;BME280;13680;49.936;11.344;2023-02-14T09:47:14;98565.53;;;2.97;78.74
25855;BME280;13680;49.936;11.344;2023-02-14T09:49:42;98565.34;;;2.85;78.60
25855;BME280;13680;49.936;11.344;2023-02-14T09:52:11;98566.16;;;2.72;80.05
25855;BME280;13680;49.936;11.344;2023-02-14T09:54:39;98570.25;;;3.01;79.66
25855;BME280;13680;49.936;11.344;2023-02-14T09:59:51;98554.69;;;3.11;79.09
25855;BME280;13680;49.936;11.344;2023-02-14T10:02:29;98550.19;;;3.05;79.28
25855;BME280;13680;49.936;11.344;2023-02-14T10:05:05;98553.81;;;3.31;78.82
25855;BME280;13680;49.936;11.344;2023-02-14T10:07:55;98553.84;;;3.24;78.41
25855;BME280;13680;49.936;11.344;2023-02-14T10:10:32;98561.19;;;3.29;78.93
25855;BME280;13680;49.936;11.344;2023-02-14T10:13:11;98558.72;;;3.34;78.60
25855;BME280;13680;49.936;11.344;2023-02-14T10:15:48;98561.34;;;3.54;78.38
25855;BME280;13680;49.936;11.344;2023-02-14T10:18:21;98558.69;;;3.48;77.81
25855;BME280;13680;49.936;11.344;2023-02-14T10:20:52;98564.56;;;3.70;77.74
25855;BME280;13680;49.936;11.344;2023-02-14T10:25:57;98558.03;;;3.66;78.47
25855;BME280;13680;49.936;11.344;2023-02-14T10:28:29;98558.59;;;3.88;77.72
25855;BME280;13680;49.936;11.344;2023-02-14T10:31:10;98559.72;;;4.05;77.29
25855;BME280;13680;49.936;11.344;2023-02-14T10:33:41;98554.56;;;4.10;75.74
25855;BME280;13680;49.936;11.344;2023-02-14T10:36:19;98559.78;;;3.92;77.53
25855;BME280;13680;49.936;11.344;2023-02-14T10:39:02;98557.91;;;3.99;77.18
25855;BME280;13680;49.936;11.344;2023-02-14T10:47:26;98555.28;;;3.92;76.93
25855;BME280;13680;49.936;11.344;2023-02-14T10:49:55;98554.22;;;4.00;76.68
25855;BME280;13680;49.936;11.344;2023-02-14T10:52:44;98558.59;;;3.81;76.95
25855;BME280;13680;49.936;11.344;2023-02-14T10:56:04;98549.25;;;3.65;77.49
25855;BME280;13680;49.936;11.344;2023-02-14T10:58:31;98554.03;;;3.95;77.15
25855;BME280;13680;49.936;11.344;2023-02-14T11:01:14;98552.25;;;4.21;77.15
25855;BME280;13680;49.936;11.344;2023-02-14T11:03:42;98549.06;;;4.12;76.54
25855;BME280;13680;49.936;11.344;2023-02-14T11:06:14;98550.72;;;4.06;76.74
25855;BME280;13680;49.936;11.344;2023-02-14T11:08:40;98545.72;;;4.17;76.66
25855;BME280;13680;49.936;11.344;2023-02-14T11:14:37;98547.09;;;4.26;75.89
25855;BME280;13680;49.936;11.344;2023-02-14T11:17:32;98545.88;;;3.90;77.20
25855;BME280;13680;49.936;11.344;2023-02-14T11:20:02;98542.22;;;3.84;77.81
25855;BME280;13680;49.936;11.344;2023-02-14T11:22:32;98537.56;;;4.12;77.11
25855;BME280;13680;49.936;11.344;2023-02-14T11:25:19;98537.91;;;4.22;77.27
25855;BME280;13680;49.936;11.344;2023-02-14T11:27:46;98532.31;;;4.37;76.83
25855;BME280;13680;49.936;11.344;2023-02-14T11:30:21;98526.50;;;4.47;76.99
25855;BME280;13680;49.936;11.344;2023-02-14T11:32:50;98531.16;;;4.58;76.37
25855;BME280;13680;49.936;11.344;2023-02-14T11:35:20;98523.75;;;4.60;76.10
25855;BME280;13680;49.936;11.344;2023-02-14T11:37:50;98527.97;;;4.68;75.70
25855;BME280;13680;49.936;11.344;2023-02-14T11:40:28;98523.44;;;4.75;75.37
25855;BME280;13680;49.936;11.344;2023-02-14T11:42:54;98520.69;;;4.82;75.03
25855;BME280;13680;49.936;11.344;2023-02-14T11:45:29;98517.63;;;4.53;75.82
25855;BME280;13680;49.936;11.344;2023-02-14T11:50:34;98511.13;;;4.49;77.01
25855;BME280;13680;49.936;11.344;2023-02-14T11:53:00;98507.22;;;4.77;77.04
25855;BME280;13680;49.936;11.344;2023-02-14T11:55:29;98503.34;;;4.72;76.48
25855;BME280;13680;49.936;11.344;2023-02-14T11:57:56;98499.75;;;4.85;76.29
25855;BME280;13680;49.936;11.344;2023-02-14T12:00:22;98499.75;;;4.85;76.18
25855;BME280;13680;49.936;11.344;2023-02-14T12:02:51;98492.31;;;4.94;76.66
25855;BME280;13680;49.936;11.344;2023-02-14T12:05:30;98495.53;;;4.96;76.07
25855;BME280;13680;49.936;11.344;2023-02-14T12:07:57;98487.06;;;4.81;76.92
25855;BME280;13680;49.936;11.344;2023-02-14T12:10:29;98494.66;;;5.02;76.49
25855;BME280;13680;49.936;11.344;2023-02-14T12:18:28;98484.72;;;4.91;76.82
25855;BME280;13680;49.936;11.344;2023-02-14T12:21:09;98476.63;;;4.79;77.43
25855;BME280;13680;49.936;11.344;2023-02-14T12:23:55;98482.38;;;5.01;77.03
25855;BME280;13680;49.936;11.344;2023-02-14T12:26:39;98478.25;;;5.05;76.90
25855;BME280;13680;49.936;11.344;2023-02-14T12:29:38;98476.22;;;5.01;76.41
25855;BME280;13680;49.936;11.344;2023-02-14T12:32:19;98472.97;;;4.99;76.48
25855;BME280;13680;49.936;11.344;2023-02-14T12:34:46;98467.13;;;5.08;76.00
25855;BME280;13680;49.936;11.344;2023-02-14T12:46:02;98460.75;;;5.10;75.31
25855;BME280;13680;49.936;11.344;2023-02-14T12:48:36;98447.06;;;4.62;77.24
25855;BME280;13680;49.936;11.344;2023-02-14T12:53:57;98450.59;;;4.81;77.20
25855;BME280;13680;49.936;11.344;2023-02-14T12:59:11;98431.13;;;4.99;76.94
25855;BME280;13680;49.936;11.344;2023-02-14T13:01:51;98439.41;;;4.91;77.06
25855;BME280;13680;49.936;11.344;2023-02-14T13:06:56;98427.28;;;4.95;77.99
25855;BME280;13680;49.936;11.344;2023-02-14T13:09:40;98429.13;;;4.95;77.73
25855;BME280;13680;49.936;11.344;2023-02-14T13:18:12;98424.88;;;4.68;78.46
25855;BME280;13680;49.936;11.344;2023-02-14T13:20:51;98420.16;;;4.89;77.99
25855;BME280;13680;49.936;11.344;2023-02-14T13:23:25;98416.22;;;4.73;79.09
25855;BME280;13680;49.936;11.344;2023-02-14T13:26:00;98413.31;;;4.74;79.65
25855;BME280;13680;49.936;11.344;2023-02-14T13:28:29;98409.00;;;4.55;79.19
25855;BME280;13680;49.936;11.344;2023-02-14T13:30:57;98407.09;;;4.62;80.57
25855;BME280;13680;49.936;11.344;2023-02-14T13:33:27;98403.13;;;4.71;80.49
25855;BME280;13680;49.936;11.344;2023-02-14T13:35:57;98408.59;;;4.58;80.42
25855;BME280;13680;49.936;11.344;2023-02-14T13:38:25;98400.09;;;4.86;79.86
25855;BME280;13680;49.936;11.344;2023-02-14T13:40:53;98402.25;;;4.78;79.73
25855;BME280;13680;49.936;11.344;2023-02-14T13:43:45;98407.88;;;4.88;79.71
25855;BME280;13680;49.936;11.344;2023-02-14T13:46:13;98395.28;;;4.77;79.61
25855;BME280;13680;49.936;11.344;2023-02-14T13:48:39;98394.53;;;4.88;79.74
25855;BME280;13680;49.936;11.344;2023-02-14T13:51:09;98392.03;;;5.12;79.07
25855;BME280;13680;49.936;11.344;2023-02-14T13:58:49;98387.72;;;4.73;80.80
25855;BME280;13680;49.936;11.344;2023-02-14T14:01:36;98388.59;;;4.86;80.90
25855;BME280;13680;49.936;11.344;2023-02-14T14:17:33;98375.34;;;4.79;80.75
25855;BME280;13680;49.936;11.344;2023-02-14T14:19:59;98384.00;;;4.74;80.62
25855;BME280;13680;49.936;11.344;2023-02-14T14:22:26;98384.91;;;4.87;80.19
25855;BME280;13680;49.936;11.344;2023-02-14T14:24:54;98381.34;;;4.74;80.55
25855;BME280;13680;49.936;11.344;2023-02-14T14:27:39;98386.63;;;4.81;80.99
25855;BME280;13680;49.936;11.344;2023-02-14T14:30:26;98384.38;;;4.78;81.12
25855;BME280;13680;49.936;11.344;2023-02-14T14:32:55;98385.38;;;4.84;80.82
25855;BME280;13680;49.936;11.344;2023-02-14T14:35:23;98382.25;;;5.05;80.20
25855;BME280;13680;49.936;11.344;2023-02-14T14:37:54;98386.03;;;4.79;80.35
25855;BME280;13680;49.936;11.344;2023-02-14T14:42:51;98375.78;;;4.95;80.56
25855;BME280;13680;49.936;11.344;2023-02-14T14:45:21;98368.91;;;4.87;80.03
25855;BME280;13680;49.936;11.344;2023-02-14T14:47:51;98368.78;;;4.63;81.83
25855;BME280;13680;49.936;11.344;2023-02-14T14:50:23;98368.72;;;4.45;82.53
25855;BME280;13680;49.936;11.344;2023-02-14T14:52:52;98363.38;;;4.70;81.88
25855;BME280;13680;49.936;11.344;2023-02-14T14:55:30;98361.50;;;4.70;81.32
25855;BME280;13680;49.936;11.344;2023-02-14T14:58:00;98356.97;;;4.52;82.17
25855;BME280;13680;49.936;11.344;2023-02-14T15:00:34;98356.47;;;4.62;82.49
25855;BME280;13680;49.936;11.344;2023-02-14T15:03:05;98359.56;;;4.59;83.13